createdAt,value
2022-07-29T03:59:47.209Z,1.4
2022-07-29T04:02:01.721Z,2.2
2022-07-29T04:04:16.584Z,1.9
2022-07-29T04:06:30.824Z,2.4
2022-07-29T04:08:45.206Z,2.1
2022-07-29T04:10:59.593Z,1.9
2022-07-29T04:13:13.994Z,1.9
2022-07-29T04:15:30.790Z,2.2
2022-07-29T04:17:45.837Z,2
2022-07-29T04:20:00.237Z,1.7
2022-07-29T04:22:14.677Z,2.3
2022-07-29T04:24:29.042Z,1.8
2022-07-29T04:26:43.510Z,1.7
2022-07-29T04:28:57.839Z,2.2
2022-07-29T04:31:12.304Z,1.6
2022-07-29T04:33:26.643Z,2
2022-07-29T04:35:45.752Z,1.7
2022-07-29T04:37:58.399Z,1.6
2022-07-29T04:40:12.779Z,1.8
2022-07-29T04:42:28.126Z,1.5
2022-07-29T04:44:44.587Z,1.8
2022-07-29T04:46:59.962Z,1.6
2022-07-29T04:49:14.398Z,1.9
2022-07-29T04:51:28.763Z,2
2022-07-29T04:53:44.167Z,1.6
2022-07-29T04:55:58.738Z,2.1
2022-07-29T04:58:13.151Z,2
2022-07-29T05:00:33.158Z,1.7
2022-07-29T05:02:45.020Z,1.9
2022-07-29T05:04:59.333Z,2
2022-07-29T05:07:13.792Z,1.9
2022-07-29T05:09:28.139Z,1.9
2022-07-29T05:11:42.671Z,2.2
2022-07-29T05:13:57.011Z,1.7
2022-07-29T05:16:11.453Z,1.9
2022-07-29T05:18:26.998Z,2
2022-07-29T05:20:41.423Z,1.6
2022-07-29T05:22:55.766Z,2.1
2022-07-29T05:25:11.161Z,1.8
2022-07-29T05:27:25.844Z,1.8
2022-07-29T05:29:43.419Z,1.7
2022-07-29T05:31:58.589Z,1.7
2022-07-29T05:34:13.187Z,1.7
2022-07-29T05:36:28.371Z,1.9
2022-07-29T05:38:43.079Z,2.2
2022-07-29T05:40:57.428Z,2.4
2022-07-29T05:43:11.817Z,2.2
2022-07-29T05:45:26.324Z,2.1
2022-07-29T05:47:40.629Z,2.2
2022-07-29T05:49:55.072Z,2.4
2022-07-29T05:52:10.448Z,2.1
2022-07-29T05:54:24.819Z,2
2022-07-29T05:56:39.295Z,1.8
2022-07-29T05:58:53.870Z,2.1
2022-07-29T06:01:09.345Z,2.4
2022-07-29T06:03:23.704Z,1.9
2022-07-29T06:05:38.175Z,2.3
2022-07-29T06:07:53.559Z,2
2022-07-29T06:10:07.921Z,2
2022-07-29T06:12:22.282Z,2.2
2022-07-29T06:14:36.722Z,1.7
2022-07-29T06:16:51.167Z,2.4
2022-07-29T06:19:05.648Z,2.1
2022-07-29T06:21:19.975Z,2.5
2022-07-29T06:23:34.402Z,2.9
2022-07-29T06:25:48.763Z,3.2
2022-07-29T06:28:03.355Z,2.9
2022-07-29T06:30:17.783Z,2.5
2022-07-29T06:32:32.114Z,2.5
2022-07-29T06:34:48.924Z,2.5
2022-07-29T06:37:03.168Z,2.1
2022-07-29T06:39:18.053Z,2.1
2022-07-29T06:41:32.336Z,2.3
2022-07-29T06:43:50.932Z,2.6
2022-07-29T06:46:04.262Z,2.5
2022-07-29T06:48:18.584Z,2.5
2022-07-29T06:50:33.064Z,2.4
2022-07-29T06:52:47.435Z,2.5
2022-07-29T06:55:02.115Z,2.7
2022-07-29T06:57:16.511Z,2.9
2022-07-29T06:59:35.701Z,2.4
2022-07-29T07:01:48.274Z,2.6
2022-07-29T07:04:02.671Z,2.9
2022-07-29T07:06:17.209Z,2.1
2022-07-29T07:08:31.637Z,2.9
2022-07-29T07:10:45.976Z,2.8
2022-07-29T07:13:00.504Z,2.7
2022-07-29T07:15:14.936Z,2.9
2022-07-29T07:17:29.416Z,3.1
2022-07-29T07:19:43.731Z,2.5
2022-07-29T07:21:58.160Z,2.9
2022-07-29T07:24:12.760Z,2.7
2022-07-29T07:26:26.962Z,2.9
2022-07-29T07:28:41.347Z,2.7
2022-07-29T07:30:55.761Z,2.4
2022-07-29T07:33:10.168Z,2.7
2022-07-29T07:35:24.628Z,2.6
2022-07-29T07:37:39.010Z,2.4
2022-07-29T07:39:53.384Z,2.5
2022-07-29T07:42:07.747Z,2.8
2022-07-29T07:44:22.845Z,2.9
2022-07-29T07:46:38.566Z,2.6
2022-07-29T07:48:54.056Z,2.8
2022-07-29T07:51:08.379Z,2.7
2022-07-29T07:53:24.711Z,2.8
2022-07-29T07:56:07.878Z,2.7
2022-07-29T07:57:56.533Z,2.5
2022-07-29T08:00:10.921Z,3
2022-07-29T08:02:25.376Z,2.7
2022-07-29T08:04:39.784Z,2.7
2022-07-29T08:06:54.180Z,3
2022-07-29T08:09:27.993Z,2.8
2022-07-29T08:11:25.894Z,2.8
2022-07-29T08:13:40.482Z,3.1
2022-07-29T08:15:54.875Z,2.7
2022-07-29T08:18:10.330Z,3.1
2022-07-29T08:20:24.705Z,2.8
2022-07-29T08:22:39.110Z,2.9
2022-07-29T08:24:53.453Z,3
2022-07-29T08:27:27.195Z,2.9
2022-07-29T08:29:26.278Z,3.1
2022-07-29T08:31:40.701Z,4.4
2022-07-29T08:33:55.115Z,3.4
2022-07-29T08:36:09.587Z,3.9
2022-07-29T08:38:24.031Z,3.3
2022-07-29T08:40:38.423Z,2.9
2022-07-29T08:42:52.817Z,2.8
2022-07-29T08:45:07.212Z,4.8
2022-07-29T08:47:21.667Z,8.8
2022-07-29T08:49:36.129Z,3.9
2022-07-29T08:51:51.499Z,3.2
2022-07-29T08:54:05.875Z,3.4
2022-07-29T08:56:20.302Z,3.3
2022-07-29T08:58:38.365Z,2.8
2022-07-29T09:00:52.266Z,2.6
2022-07-29T09:03:07.572Z,2.9
2022-07-29T09:05:22.007Z,2.6
2022-07-29T09:07:36.364Z,2.8
2022-07-29T09:09:50.871Z,2.7
2022-07-29T09:12:05.232Z,3
2022-07-29T09:14:19.586Z,2.9
2022-07-29T09:16:52.128Z,2.6
2022-07-29T09:18:51.436Z,2.7
2022-07-29T09:21:05.830Z,3.3
2022-07-29T09:23:23.348Z,2.6
2022-07-29T09:25:37.645Z,3.1
2022-07-29T09:27:52.082Z,2.8
2022-07-29T09:30:06.451Z,3.2
2022-07-29T09:32:20.851Z,3.6
2022-07-29T09:34:35.213Z,3.4
2022-07-29T09:36:50.762Z,3.5
2022-07-29T09:39:05.198Z,3.3
2022-07-29T09:41:19.672Z,3.3
2022-07-29T09:43:34.101Z,4
2022-07-29T09:45:48.445Z,3.6
2022-07-29T09:48:03.245Z,3.1
2022-07-29T09:50:17.718Z,3.1
2022-07-29T09:52:33.116Z,3.1
2022-07-29T09:54:47.735Z,3
2022-07-29T09:57:02.243Z,2.8
2022-07-29T09:59:16.625Z,4
2022-07-29T10:01:31.325Z,3
2022-07-29T10:03:46.033Z,2.5
2022-07-29T10:06:00.359Z,2.6
2022-07-29T10:08:14.858Z,2.6
2022-07-29T10:10:29.292Z,3
2022-07-29T10:12:43.676Z,3
2022-07-29T10:14:58.102Z,3.1
2022-07-29T10:17:12.546Z,3.5
2022-07-29T10:19:27.000Z,3.2
2022-07-29T10:21:41.407Z,4
2022-07-29T10:23:59.503Z,4.5
2022-07-29T10:26:13.183Z,4.4
2022-07-29T10:28:27.558Z,3.8
2022-07-29T10:30:42.502Z,4.5
2022-07-29T10:32:57.060Z,4.3
2022-07-29T10:35:11.531Z,4.4
2022-07-29T10:37:27.006Z,4
2022-07-29T10:39:44.808Z,2.9
2022-07-29T10:41:59.092Z,2.6
2022-07-29T10:44:17.270Z,3.6
2022-07-29T10:46:30.692Z,2.9
2022-07-29T10:48:45.072Z,3.3
2022-07-29T10:50:59.451Z,2.7
2022-07-29T10:53:14.898Z,2.9
2022-07-29T10:55:29.290Z,2.9
2022-07-29T10:57:52.864Z,3.4
2022-07-29T11:00:02.052Z,2.8
2022-07-29T11:02:36.716Z,2.9
2022-07-29T11:04:33.866Z,2.8
2022-07-29T11:06:49.209Z,5.1
2022-07-29T11:09:03.616Z,3.3
2022-07-29T11:11:20.189Z,3.4
2022-07-29T11:13:41.316Z,3.4
2022-07-29T11:15:53.035Z,4
2022-07-29T11:18:07.446Z,3.7
2022-07-29T11:20:22.918Z,3.9
2022-07-29T11:22:37.314Z,3.9
2022-07-29T11:24:53.675Z,3.5
2022-07-29T11:27:10.144Z,3.4
2022-07-29T11:29:24.479Z,3.8
2022-07-29T11:31:39.945Z,3.8
2022-07-29T11:33:56.996Z,4
2022-07-29T11:36:16.679Z,3.7
2022-07-29T11:38:32.015Z,3.6
2022-07-29T11:40:45.606Z,3.7
2022-07-29T11:42:59.944Z,3.4
2022-07-29T11:45:42.408Z,3.7
2022-07-29T11:47:36.976Z,3.7
2022-07-29T11:49:50.991Z,3.4
2022-07-29T11:52:08.340Z,4.3
2022-07-29T11:54:27.400Z,3.8
2022-07-29T11:56:42.078Z,3.7
2022-07-29T11:58:56.538Z,3.7
2022-07-29T12:01:11.893Z,3.9
2022-07-29T12:03:32.723Z,3.9
2022-07-29T12:05:47.995Z,3.3
2022-07-29T12:08:01.167Z,3.3
2022-07-29T12:10:19.675Z,3.4
2022-07-29T12:12:33.109Z,3.8
2022-07-29T12:14:47.713Z,3.4
2022-07-29T12:17:02.126Z,3.2
2022-07-29T12:19:16.531Z,3.5
2022-07-29T12:21:32.113Z,2.8
2022-07-29T12:23:46.437Z,2.7
2022-07-29T12:26:00.888Z,3.3
2022-07-29T12:28:18.557Z,3.1
2022-07-29T12:30:32.980Z,3.6
2022-07-29T12:32:48.398Z,3.4
2022-07-29T12:35:02.774Z,3.4
2022-07-29T12:37:17.194Z,2.7
2022-07-29T12:39:31.589Z,2.7
2022-07-29T12:41:46.040Z,3.2
2022-07-29T12:44:00.471Z,3.1
2022-07-29T12:46:14.988Z,3.4
2022-07-29T12:48:29.320Z,3.1
2022-07-29T12:50:43.957Z,2.7
2022-07-29T12:52:58.365Z,3.1
2022-07-29T12:55:12.750Z,2.9
2022-07-29T12:57:27.144Z,2.6
2022-07-29T12:59:41.556Z,2.7
2022-07-29T13:01:56.353Z,2.8
2022-07-29T13:04:10.474Z,3.1
2022-07-29T13:06:24.853Z,3.2
2022-07-29T13:08:40.212Z,3.3
2022-07-29T13:10:54.630Z,2.8
2022-07-29T13:13:08.936Z,2.8
2022-07-29T13:15:23.382Z,2.7
2022-07-29T13:17:39.109Z,3.1
2022-07-29T13:19:54.509Z,3
2022-07-29T13:22:09.057Z,3
2022-07-29T13:24:23.429Z,2.7
2022-07-29T13:26:38.877Z,3.2
2022-07-29T13:28:54.378Z,3
2022-07-29T13:31:08.806Z,2.3
2022-07-29T13:33:23.195Z,2.5
2022-07-29T13:35:39.884Z,2.4
2022-07-29T13:37:54.116Z,2.3
2022-07-29T13:40:08.474Z,2.1
2022-07-29T13:42:22.922Z,2.1
2022-07-29T13:44:37.357Z,2.4
2022-07-29T13:46:51.897Z,2.2
2022-07-29T13:49:06.302Z,2.5
2022-07-29T13:51:21.660Z,2.2
2022-07-29T13:53:37.069Z,2.1
2022-07-29T13:55:51.513Z,2.1
2022-07-29T13:58:05.837Z,2.4
2022-07-29T14:00:20.236Z,2.1
2022-07-29T14:02:34.701Z,1.8
2022-07-29T14:04:49.328Z,2.1
2022-07-29T14:07:05.706Z,2.1
2022-07-29T14:09:20.050Z,2.1
2022-07-29T14:11:34.400Z,2
2022-07-29T14:13:49.135Z,1.9
2022-07-29T14:16:03.563Z,2.5
2022-07-29T14:18:17.965Z,2
2022-07-29T14:20:32.484Z,2
2022-07-29T14:22:46.734Z,1.9
2022-07-29T14:25:07.424Z,2.7
2022-07-29T14:27:20.792Z,2.2
2022-07-29T14:29:38.844Z,2.6
2022-07-29T14:31:52.763Z,2
2022-07-29T14:34:07.101Z,2.1
2022-07-29T14:36:22.463Z,2
2022-07-29T14:38:36.813Z,2.1
2022-07-29T14:40:52.253Z,2.1
2022-07-29T14:43:06.639Z,1.9
2022-07-29T14:45:21.059Z,2.3
2022-07-29T14:47:35.527Z,1.9
2022-07-29T14:49:50.128Z,2.2
2022-07-29T14:52:04.547Z,3.3
2022-07-29T14:54:19.011Z,2.2
2022-07-29T14:56:37.223Z,2.1
2022-07-29T14:58:53.033Z,2.4
2022-07-29T15:01:07.443Z,2.3
2022-07-29T15:03:24.834Z,2.5
2022-07-29T15:05:39.284Z,1.8
2022-07-29T15:07:53.729Z,1.8
2022-07-29T15:10:09.106Z,2.8
2022-07-29T15:12:23.513Z,3.1
2022-07-29T15:14:37.879Z,2.2
2022-07-29T15:16:53.289Z,1.8
2022-07-29T15:19:07.598Z,1.9
2022-07-29T15:21:22.012Z,2.3
2022-07-29T15:23:36.375Z,2.3
2022-07-29T15:25:50.768Z,2
2022-07-29T15:28:05.166Z,2.1
2022-07-29T15:30:27.949Z,2.4
2022-07-29T15:32:36.947Z,2.5
2022-07-29T15:34:51.437Z,2.5
2022-07-29T15:37:07.119Z,2.4
2022-07-29T15:39:21.511Z,2.7
2022-07-29T15:41:35.924Z,2.3
2022-07-29T15:43:50.417Z,2.6
2022-07-29T15:46:04.786Z,2.1
2022-07-29T15:48:20.304Z,2.5
2022-07-29T15:50:35.712Z,2.2
2022-07-29T15:52:50.061Z,2.2
2022-07-29T15:55:04.423Z,2
2022-07-29T15:57:18.866Z,2.4
2022-07-29T15:59:33.259Z,2.5
2022-07-29T16:01:47.846Z,2.3
2022-07-29T16:04:02.263Z,1.9
2022-07-29T16:06:16.582Z,2.1
2022-07-29T16:08:30.973Z,2.4
2022-07-29T16:10:45.343Z,1.9
2022-07-29T16:12:59.741Z,2.2
2022-07-29T16:15:14.150Z,2
2022-07-29T16:17:28.463Z,2
2022-07-29T16:19:42.856Z,2.4
2022-07-29T16:21:59.936Z,2.5
2022-07-29T16:24:14.576Z,2.5
2022-07-29T16:26:28.974Z,2.5
2022-07-29T16:28:43.363Z,2.3
2022-07-29T16:30:57.734Z,2
2022-07-29T16:33:12.087Z,2.1
2022-07-29T16:35:39.392Z,2.7
2022-07-29T16:37:44.008Z,2.1
2022-07-29T16:39:58.548Z,2.6
2022-07-29T16:42:30.887Z,2.3
2022-07-29T16:44:30.340Z,2.2
2022-07-29T16:46:45.744Z,2.3
2022-07-29T16:49:00.199Z,2.1
2022-07-29T16:51:15.491Z,1.8
2022-07-29T16:53:30.825Z,2.1
2022-07-29T16:55:45.165Z,2
2022-07-29T16:57:59.552Z,1.7
2022-07-29T17:00:13.919Z,2.7
2022-07-29T17:02:28.424Z,2.1
2022-07-29T17:04:42.793Z,1.8
2022-07-29T17:06:57.452Z,2.3
2022-07-29T17:09:11.564Z,2
2022-07-29T17:11:52.205Z,2.3
2022-07-29T17:13:43.514Z,2.3
2022-07-29T17:16:00.680Z,2.3
2022-07-29T17:18:15.276Z,2.6
2022-07-29T17:20:29.658Z,2.6
2022-07-29T17:22:44.246Z,2.2
2022-07-29T17:24:58.596Z,1.9
2022-07-29T17:27:13.050Z,2.3
2022-07-29T17:29:27.595Z,2
2022-07-29T17:31:42.052Z,2.1
2022-07-29T17:34:00.045Z,2.2
2022-07-29T17:36:13.770Z,2
2022-07-29T17:38:28.270Z,2
2022-07-29T17:40:42.624Z,2.1
2022-07-29T17:42:59.015Z,1.9
2022-07-29T17:45:13.416Z,2.4
2022-07-29T17:47:27.941Z,2.1
2022-07-29T17:49:42.328Z,2.4
2022-07-29T17:52:00.864Z,2
2022-07-29T17:54:14.154Z,1.8
2022-07-29T17:56:29.545Z,1.9
2022-07-29T17:58:43.980Z,1.6
2022-07-29T18:00:58.962Z,1.7
2022-07-29T18:03:13.387Z,2.4
2022-07-29T18:05:27.671Z,2
2022-07-29T18:07:42.372Z,1.9
2022-07-29T18:10:00.667Z,1.9
2022-07-29T18:12:14.223Z,2.3
2022-07-29T18:14:28.702Z,1.9
2022-07-29T18:16:43.114Z,2.1
2022-07-29T18:18:57.645Z,1.9
2022-07-29T18:21:11.959Z,2.1
2022-07-29T18:23:26.388Z,2
2022-07-29T18:25:40.785Z,1.9
2022-07-29T18:28:00.235Z,2.5
2022-07-29T18:30:18.814Z,1.9
2022-07-29T18:32:33.243Z,1.9
2022-07-29T18:34:47.614Z,2.2
2022-07-29T18:37:02.191Z,1.7
2022-07-29T18:39:21.046Z,2.4
2022-07-29T18:41:33.943Z,2.1
2022-07-29T18:43:49.394Z,2.2
2022-07-29T18:46:05.769Z,2
2022-07-29T18:48:20.246Z,2.2
2022-07-29T18:50:34.757Z,1.9
2022-07-29T18:52:49.167Z,2.3
2022-07-29T18:55:03.643Z,2.2
2022-07-29T18:57:53.245Z,2.3
2022-07-29T18:59:35.484Z,3.2
2022-07-29T19:01:49.952Z,2.1
2022-07-29T19:04:04.339Z,2.4
2022-07-29T19:06:21.635Z,2.2
2022-07-29T19:08:34.236Z,2.1
2022-07-29T19:10:48.637Z,2
2022-07-29T19:13:03.126Z,1.7
2022-07-29T19:15:20.193Z,1.9
2022-07-29T19:17:33.883Z,2.2
2022-07-29T19:19:48.297Z,1.9
2022-07-29T19:22:02.630Z,2.1
2022-07-29T19:24:18.771Z,7.6
2022-07-29T19:26:33.974Z,7.6
2022-07-29T19:28:49.519Z,2.4
2022-07-29T19:31:06.669Z,2.1
2022-07-29T19:33:21.105Z,2
2022-07-29T19:35:35.532Z,1.7
2022-07-29T19:37:50.079Z,1.8
2022-07-29T19:40:04.485Z,1.9
2022-07-29T19:42:18.941Z,1.9
2022-07-29T19:44:33.393Z,2.4
2022-07-29T19:46:48.848Z,2
2022-07-29T19:49:03.617Z,1.9
2022-07-29T19:51:17.901Z,1.8
2022-07-29T19:53:33.257Z,1.8
2022-07-29T19:55:47.642Z,1.8
2022-07-29T19:58:03.138Z,2
2022-07-29T20:00:20.332Z,1.9
2022-07-29T20:02:35.293Z,1.9
2022-07-29T20:04:49.668Z,2
2022-07-29T20:07:04.098Z,2
2022-07-29T20:09:20.873Z,2.2
2022-07-29T20:11:35.944Z,2.1
2022-07-29T20:13:51.423Z,2
2022-07-29T20:16:06.596Z,2.1
2022-07-29T20:18:21.225Z,1.8
2022-07-29T20:20:35.646Z,1.9
2022-07-29T20:22:50.092Z,2.1
2022-07-29T20:25:04.545Z,2
2022-07-29T20:27:18.896Z,1.7
2022-07-29T20:29:33.283Z,1.9
2022-07-29T20:31:51.469Z,1.9
2022-07-29T20:34:05.189Z,1.8
2022-07-29T20:36:20.592Z,1.9
2022-07-29T20:38:34.921Z,1.9
2022-07-29T20:40:49.483Z,2.1
2022-07-29T20:43:03.798Z,2
2022-07-29T20:45:18.286Z,9.7
2022-07-29T20:47:32.735Z,7.7
2022-07-29T20:49:47.071Z,4.1
2022-07-29T20:52:01.553Z,2.7
2022-07-29T20:54:16.143Z,2
2022-07-29T20:56:30.510Z,2
2022-07-29T20:58:45.288Z,2.1
2022-07-29T21:01:02.826Z,2.1
2022-07-29T21:03:16.475Z,2.2
2022-07-29T21:05:30.912Z,2.1
2022-07-29T21:07:45.286Z,1.8
2022-07-29T21:10:00.252Z,2.4
2022-07-29T21:12:14.793Z,1.7
2022-07-29T21:14:29.104Z,1.8
2022-07-29T21:16:43.551Z,1.9
2022-07-29T21:18:57.879Z,1.8
2022-07-29T21:21:12.323Z,2.3
2022-07-29T21:23:27.427Z,2.1
2022-07-29T21:25:41.870Z,2
2022-07-29T21:27:56.509Z,1.7
